Time;durP1;ratioP1;P1;durP2;ratioP2;P2;SDS_P1;SDS_P2;PMS_P1;PMS_P2;Temp;Humidity;BMP_temperature;BMP_pressure;BME280_temperature;BME280_humidity;BME280_pressure;Samples;Min_cycle;Max_cycle;Signal;HPM_P1;HPM_P2
2022/09/30 00:01:00;;;;;;;5.85;4.03;;;;;;;;;;5098459;28;20054;-69
2022/09/30 00:03:27;;;;;;;4.05;3.65;;;;;;;;;;5097964;28;20032;-70
2022/09/30 00:05:56;;;;;;;4.13;3.47;;;;;;;;;;5107838;28;20147;-70
2022/09/30 00:08:24;;;;;;;3.92;2.92;;;;;;;;;;5108638;28;20040;-70
2022/09/30 00:11:06;;;;;;;3.08;2.80;;;;;;;;;;5108579;28;20551;-70
2022/09/30 00:13:35;;;;;;;4.28;3.88;;;;;;;;;;5109066;28;20066;-70
2022/09/30 00:16:02;;;;;;;8.82;4.97;;;;;;;;;;5108073;28;20495;-70
2022/09/30 00:18:30;;;;;;;4.68;3.72;;;;;;;;;;5101574;28;20384;-70
2022/09/30 00:20:58;;;;;;;3.72;3.45;;;;;;;;;;5109475;28;20044;-70
2022/09/30 00:23:26;;;;;;;5.55;3.95;;;;;;;;;;5109873;28;20116;-70
2022/09/30 00:25:58;;;;;;;7.20;4.65;;;;;;;;;;5072504;28;20115;-70
2022/09/30 00:28:26;;;;;;;3.92;3.53;;;;;;;;;;5088876;28;20572;-70
2022/09/30 00:30:56;;;;;;;6.10;4.18;;;;;;;;;;5089352;28;20059;-70
2022/09/30 00:33:23;;;;;;;3.28;3.08;;;;;;;;;;5088957;28;20040;-69
2022/09/30 00:35:51;;;;;;;8.45;4.20;;;;;;;;;;5070203;28;20086;-70
2022/09/30 00:38:18;;;;;;;4.25;3.95;;;;;;;;;;5088858;28;20086;-69
2022/09/30 00:40:46;;;;;;;4.18;3.88;;;;;;;;;;5088610;28;20044;-69
2022/09/30 00:43:15;;;;;;;4.25;3.72;;;;;;;;;;5088231;28;20040;-70
2022/09/30 00:45:48;;;;;;;3.63;3.33;;;;;;;;;;5092152;28;20039;-69
2022/09/30 00:48:18;;;;;;;3.90;3.60;;;;;;;;;;5107802;28;20039;-70
2022/09/30 00:50:49;;;;;;;4.93;4.18;;;;;;;;;;5108279;28;20048;-70
2022/09/30 00:53:19;;;;;;;5.50;4.55;;;;;;;;;;5107929;28;20078;-70
2022/09/30 00:56:05;;;;;;;6.82;4.97;;;;;;;;;;5107600;28;20470;-69
2022/09/30 00:58:33;;;;;;;5.60;4.90;;;;;;;;;;5108913;28;20127;-69
2022/09/30 01:01:01;;;;;;;10.68;4.03;;;;;;;;;;5108374;28;20088;-70
2022/09/30 01:03:35;;;;;;;3.63;3.42;;;;;;;;;;5090360;28;20066;-70
2022/09/30 01:06:03;;;;;;;4.03;3.72;;;;;;;;;;5107331;28;20048;-70
2022/09/30 01:08:33;;;;;;;4.63;3.65;;;;;;;;;;5108202;28;20059;-69
2022/09/30 01:11:00;;;;;;;4.63;4.22;;;;;;;;;;5108833;28;20066;-70
2022/09/30 01:13:34;;;;;;;5.85;4.60;;;;;;;;;;5108813;28;20546;-69
2022/09/30 01:16:21;;;;;;;4.93;4.50;;;;;;;;;;5107731;28;20043;-70
2022/09/30 01:19:04;;;;;;;5.47;4.80;;;;;;;;;;5107442;28;20070;-69
2022/09/30 01:21:37;;;;;;;7.88;5.10;;;;;;;;;;5107874;28;20050;-70
2022/09/30 01:24:13;;;;;;;6.38;5.15;;;;;;;;;;5107990;28;20127;-70
2022/09/30 01:26:40;;;;;;;5.45;4.95;;;;;;;;;;5107579;28;20278;-70
2022/09/30 01:29:08;;;;;;;5.30;4.20;;;;;;;;;;5108020;28;20043;-70
2022/09/30 01:31:42;;;;;;;5.03;4.63;;;;;;;;;;5107580;28;20055;-70
2022/09/30 01:34:16;;;;;;;11.20;6.07;;;;;;;;;;5108474;28;20047;-69
2022/09/30 01:36:50;;;;;;;9.35;5.72;;;;;;;;;;5107772;28;20097;-69
2022/09/30 01:39:33;;;;;;;7.55;5.18;;;;;;;;;;5106659;28;20071;-69
2022/09/30 01:42:05;;;;;;;7.28;5.90;;;;;;;;;;5106933;28;20410;-69
2022/09/30 01:44:34;;;;;;;9.57;6.20;;;;;;;;;;5107144;28;20040;-70
2022/09/30 01:47:13;;;;;;;8.00;6.00;;;;;;;;;;5107302;28;20044;-70
2022/09/30 01:49:52;;;;;;;7.00;5.78;;;;;;;;;;5107607;28;20470;-70
2022/09/30 01:52:27;;;;;;;7.38;5.53;;;;;;;;;;5089120;28;20089;-70
2022/09/30 01:54:54;;;;;;;7.05;5.07;;;;;;;;;;5106887;28;20495;-68
2022/09/30 01:57:26;;;;;;;5.90;5.30;;;;;;;;;;5106996;28;20044;-69
2022/09/30 02:00:20;;;;;;;6.30;5.72;;;;;;;;;;5107354;28;20049;-70
2022/09/30 02:03:02;;;;;;;8.60;6.43;;;;;;;;;;5104007;28;20043;-70
2022/09/30 02:05:36;;;;;;;6.80;5.93;;;;;;;;;;5106809;28;20501;-70
2022/09/30 02:08:07;;;;;;;8.02;6.43;;;;;;;;;;5107064;28;20464;-68
2022/09/30 02:10:38;;;;;;;7.18;6.15;;;;;;;;;;5106484;28;20249;-68
2022/09/30 02:13:29;;;;;;;8.25;5.80;;;;;;;;;;5087943;28;20044;-69
2022/09/30 02:16:00;;;;;;;8.13;6.28;;;;;;;;;;5095221;28;20047;-69
2022/09/30 02:18:27;;;;;;;8.68;5.68;;;;;;;;;;5106135;28;20132;-69
2022/09/30 02:20:58;;;;;;;9.95;6.47;;;;;;;;;;5105821;28;20122;-70
2022/09/30 02:23:31;;;;;;;7.20;6.05;;;;;;;;;;5087724;28;20109;-69
2022/09/30 02:26:05;;;;;;;5.00;4.57;;;;;;;;;;5105415;28;20046;-70
2022/09/30 02:28:38;;;;;;;7.40;5.75;;;;;;;;;;5105775;28;20047;-69
2022/09/30 02:31:07;;;;;;;8.75;6.63;;;;;;;;;;5106037;28;20074;-70
2022/09/30 02:33:38;;;;;;;10.75;7.47;;;;;;;;;;5105919;28;20046;-70
2022/09/30 02:36:08;;;;;;;7.40;6.57;;;;;;;;;;5104597;28;20043;-69
2022/09/30 02:38:38;;;;;;;10.63;6.15;;;;;;;;;;5105758;28;20446;-70
2022/09/30 02:41:09;;;;;;;6.70;5.80;;;;;;;;;;5105334;28;20063;-70
2022/09/30 02:43:40;;;;;;;5.15;4.35;;;;;;;;;;5105554;28;20047;-69
2022/09/30 02:46:18;;;;;;;6.85;6.18;;;;;;;;;;5104551;28;20036;-70
2022/09/30 02:48:47;;;;;;;10.65;7.75;;;;;;;;;;5105330;28;20533;-70
2022/09/30 02:51:19;;;;;;;14.35;8.25;;;;;;;;;;5103162;28;20043;-69
2022/09/30 02:53:52;;;;;;;11.48;8.13;;;;;;;;;;5105405;28;20421;-70
2022/09/30 02:56:26;;;;;;;11.77;7.57;;;;;;;;;;5104641;28;20449;-69
2022/09/30 02:58:55;;;;;;;5.38;4.90;;;;;;;;;;5105960;28;20047;-69
2022/09/30 03:01:23;;;;;;;7.18;6.32;;;;;;;;;;5105002;28;20039;-70
2022/09/30 03:03:53;;;;;;;6.13;5.45;;;;;;;;;;5105087;28;20043;-70
2022/09/30 03:06:21;;;;;;;7.93;6.72;;;;;;;;;;5108873;28;20043;-70
2022/09/30 03:08:49;;;;;;;5.53;4.88;;;;;;;;;;5091237;28;20042;-69
2022/09/30 03:11:17;;;;;;;6.85;6.00;;;;;;;;;;5107364;28;20376;-70
2022/09/30 03:14:03;;;;;;;6.90;5.40;;;;;;;;;;5110594;28;20049;-70
2022/09/30 03:16:40;;;;;;;7.70;6.68;;;;;;;;;;5110075;28;20066;-69
2022/09/30 03:19:13;;;;;;;6.72;6.10;;;;;;;;;;5110523;28;20063;-70
2022/09/30 03:21:41;;;;;;;8.93;7.13;;;;;;;;;;5092484;28;20055;-69
2022/09/30 03:24:20;;;;;;;7.25;6.55;;;;;;;;;;5110280;28;20051;-70
2022/09/30 03:26:51;;;;;;;11.63;7.43;;;;;;;;;;5110283;28;20100;-70
2022/09/30 03:29:38;;;;;;;10.75;7.35;;;;;;;;;;5109829;28;20047;-69
2022/09/30 03:32:19;;;;;;;10.50;6.50;;;;;;;;;;5110433;28;20093;-70
2022/09/30 03:34:54;;;;;;;6.15;5.55;;;;;;;;;;5109537;28;20039;-70
2022/09/30 03:37:42;;;;;;;6.50;5.82;;;;;;;;;;5110427;28;20096;-69
2022/09/30 03:40:25;;;;;;;8.93;6.57;;;;;;;;;;5092799;28;20047;-71
2022/09/30 03:42:56;;;;;;;12.10;6.68;;;;;;;;;;5110415;28;20044;-69
2022/09/30 03:45:26;;;;;;;9.75;6.75;;;;;;;;;;5109129;28;20154;-69
2022/09/30 03:47:56;;;;;;;9.80;6.40;;;;;;;;;;5110073;28;20127;-69
2022/09/30 03:50:25;;;;;;;6.30;5.20;;;;;;;;;;5110159;28;20077;-68
2022/09/30 03:52:52;;;;;;;5.55;5.05;;;;;;;;;;5109716;28;20071;-68
2022/09/30 03:55:22;;;;;;;7.95;6.78;;;;;;;;;;5107955;28;20044;-69
2022/09/30 03:57:50;;;;;;;7.13;6.40;;;;;;;;;;5090956;28;20055;-69
2022/09/30 04:00:17;;;;;;;7.93;6.43;;;;;;;;;;5074172;28;20146;-70
2022/09/30 04:02:45;;;;;;;8.43;6.35;;;;;;;;;;5106819;28;20058;-69
2022/09/30 04:05:12;;;;;;;6.53;5.88;;;;;;;;;;5108488;28;20525;-69
2022/09/30 04:07:40;;;;;;;6.15;5.55;;;;;;;;;;5108244;28;20040;-69
2022/09/30 04:10:07;;;;;;;7.63;5.90;;;;;;;;;;5091452;28;20044;-69
2022/09/30 04:12:35;;;;;;;8.13;5.55;;;;;;;;;;5109709;28;20451;-69
2022/09/30 04:15:02;;;;;;;7.43;6.75;;;;;;;;;;5091125;28;20457;-69
2022/09/30 04:17:30;;;;;;;6.85;4.57;;;;;;;;;;5090014;28;20044;-68
2022/09/30 04:19:58;;;;;;;6.70;5.75;;;;;;;;;;5109686;28;20050;-69
2022/09/30 04:22:25;;;;;;;8.90;6.75;;;;;;;;;;5109491;28;20499;-70
2022/09/30 04:24:53;;;;;;;6.97;6.28;;;;;;;;;;5091037;28;20048;-70
2022/09/30 04:27:20;;;;;;;7.60;5.30;;;;;;;;;;5109242;28;20430;-69
2022/09/30 04:29:47;;;;;;;6.68;5.40;;;;;;;;;;5109407;28;20044;-69
2022/09/30 04:32:15;;;;;;;8.63;6.43;;;;;;;;;;5109253;28;20445;-69
2022/09/30 04:34:42;;;;;;;8.50;6.35;;;;;;;;;;5109026;28;20046;-70
2022/09/30 04:37:10;;;;;;;6.28;5.68;;;;;;;;;;5109278;28;20032;-70
2022/09/30 04:39:37;;;;;;;7.72;6.35;;;;;;;;;;5109313;28;20050;-69
2022/09/30 04:42:05;;;;;;;8.07;6.43;;;;;;;;;;5108827;28;20043;-69
2022/09/30 04:44:34;;;;;;;9.38;6.43;;;;;;;;;;5108293;28;20043;-68
2022/09/30 04:47:01;;;;;;;10.13;7.80;;;;;;;;;;5109063;28;20051;-69
2022/09/30 04:49:29;;;;;;;7.72;6.45;;;;;;;;;;5090601;28;20126;-69
2022/09/30 04:51:56;;;;;;;10.43;6.80;;;;;;;;;;5109057;28;20062;-69
2022/09/30 04:54:24;;;;;;;7.78;6.85;;;;;;;;;;5108312;28;20131;-68
2022/09/30 04:56:51;;;;;;;7.40;6.55;;;;;;;;;;5109114;28;20115;-70
2022/09/30 04:59:18;;;;;;;11.52;7.70;;;;;;;;;;5108699;28;20050;-69
2022/09/30 05:01:46;;;;;;;8.23;7.40;;;;;;;;;;5108158;28;20047;-69
2022/09/30 05:04:15;;;;;;;9.85;7.47;;;;;;;;;;5108200;28;20171;-69
2022/09/30 05:06:42;;;;;;;12.85;8.50;;;;;;;;;;5108078;28;20054;-69
2022/09/30 05:09:09;;;;;;;12.85;8.40;;;;;;;;;;5108472;28;20043;-70
2022/09/30 05:11:40;;;;;;;12.75;9.10;;;;;;;;;;5108694;28;20109;-68
2022/09/30 05:14:08;;;;;;;8.18;7.10;;;;;;;;;;5108493;28;20394;-70
2022/09/30 05:16:36;;;;;;;13.30;7.82;;;;;;;;;;5108084;28;20039;-68
2022/09/30 05:19:03;;;;;;;15.73;9.93;;;;;;;;;;5108054;28;20048;-68
2022/09/30 05:21:31;;;;;;;11.27;8.13;;;;;;;;;;5108106;28;20472;-68
2022/09/30 05:23:58;;;;;;;11.10;8.82;;;;;;;;;;5108195;28;20039;-70
2022/09/30 05:26:26;;;;;;;12.45;7.65;;;;;;;;;;5107105;28;20046;-68
2022/09/30 05:28:53;;;;;;;10.90;8.23;;;;;;;;;;5088380;28;20460;-69
2022/09/30 05:31:21;;;;;;;14.65;10.38;;;;;;;;;;5098882;28;20048;-70
2022/09/30 05:33:48;;;;;;;12.35;9.68;;;;;;;;;;5106487;28;20044;-68
2022/09/30 05:36:20;;;;;;;14.77;10.52;;;;;;;;;;5105433;28;20134;-68
2022/09/30 05:38:51;;;;;;;15.70;9.38;;;;;;;;;;5088498;28;20039;-69
2022/09/30 05:41:19;;;;;;;14.52;9.10;;;;;;;;;;5107109;28;20063;-69
2022/09/30 05:43:47;;;;;;;14.13;10.05;;;;;;;;;;5106547;28;20071;-69
2022/09/30 05:46:15;;;;;;;17.05;9.55;;;;;;;;;;5105958;28;20483;-70
2022/09/30 05:48:43;;;;;;;12.40;8.25;;;;;;;;;;5106920;28;20044;-70
2022/09/30 05:51:11;;;;;;;13.85;9.73;;;;;;;;;;5107349;28;20048;-70
2022/09/30 05:53:38;;;;;;;10.93;7.75;;;;;;;;;;5076147;28;20508;-70
2022/09/30 05:56:06;;;;;;;16.58;10.38;;;;;;;;;;5085731;28;20068;-70
2022/09/30 05:58:34;;;;;;;23.98;12.27;;;;;;;;;;5100294;28;20526;-69
2022/09/30 06:01:06;;;;;;;17.05;11.77;;;;;;;;;;5085827;28;20043;-70
2022/09/30 06:03:40;;;;;;;15.70;11.90;;;;;;;;;;5104363;28;20051;-70
2022/09/30 06:06:07;;;;;;;17.48;11.90;;;;;;;;;;5097485;28;20130;-70
2022/09/30 06:08:35;;;;;;;15.98;11.20;;;;;;;;;;5087244;28;20032;-70
2022/09/30 06:11:10;;;;;;;13.73;10.23;;;;;;;;;;5086640;28;20125;-69
2022/09/30 06:13:38;;;;;;;17.92;11.65;;;;;;;;;;5072055;28;20047;-70
2022/09/30 06:16:06;;;;;;;20.30;12.98;;;;;;;;;;5081543;28;20321;-70
2022/09/30 06:18:33;;;;;;;18.90;11.85;;;;;;;;;;5086578;28;20051;-69
2022/09/30 06:21:02;;;;;;;21.55;12.20;;;;;;;;;;5087729;28;20039;-69
2022/09/30 06:23:30;;;;;;;23.45;12.73;;;;;;;;;;5101283;28;20399;-69
2022/09/30 06:25:59;;;;;;;18.27;11.60;;;;;;;;;;5067886;28;20044;-70
2022/09/30 06:28:26;;;;;;;18.60;11.60;;;;;;;;;;5070347;28;21633;-70
2022/09/30 06:30:54;;;;;;;15.35;9.35;;;;;;;;;;5103782;28;20046;-68
2022/09/30 06:33:21;;;;;;;14.55;9.82;;;;;;;;;;5098538;28;20044;-70
2022/09/30 06:35:50;;;;;;;12.30;9.45;;;;;;;;;;5100713;28;20044;-70
2022/09/30 06:38:17;;;;;;;15.63;9.98;;;;;;;;;;5099961;28;20039;-69
2022/09/30 06:40:49;;;;;;;14.85;10.35;;;;;;;;;;5098636;28;20044;-70
2022/09/30 06:43:19;;;;;;;15.20;10.77;;;;;;;;;;5100818;28;20499;-68
2022/09/30 06:45:50;;;;;;;14.75;10.00;;;;;;;;;;5106110;28;20073;-69
2022/09/30 06:48:18;;;;;;;13.52;10.57;;;;;;;;;;5075807;28;20040;-69
2022/09/30 06:51:02;;;;;;;13.18;10.48;;;;;;;;;;5075449;28;20126;-69
2022/09/30 06:53:29;;;;;;;10.90;8.75;;;;;;;;;;5078165;28;20368;-70
2022/09/30 06:55:57;;;;;;;10.82;9.10;;;;;;;;;;5105918;28;20051;-69
2022/09/30 06:58:25;;;;;;;10.68;8.40;;;;;;;;;;5081149;28;20396;-68
2022/09/30 07:01:02;;;;;;;17.00;9.82;;;;;;;;;;5106159;28;20140;-69
2022/09/30 07:03:31;;;;;;;10.98;8.57;;;;;;;;;;5106009;28;20046;-70
2022/09/30 07:06:00;;;;;;;8.85;6.43;;;;;;;;;;5104738;28;20048;-67
2022/09/30 07:08:30;;;;;;;7.72;6.70;;;;;;;;;;5105972;28;20101;-70
2022/09/30 07:10:58;;;;;;;10.85;7.80;;;;;;;;;;5106389;28;20103;-69
2022/09/30 07:13:26;;;;;;;12.55;8.52;;;;;;;;;;5106106;28;20233;-69
2022/09/30 07:15:55;;;;;;;10.75;7.85;;;;;;;;;;5087082;28;20056;-69
2022/09/30 07:18:24;;;;;;;9.35;7.72;;;;;;;;;;5088741;28;20850;-69
2022/09/30 07:20:51;;;;;;;8.18;6.82;;;;;;;;;;5106495;28;20039;-70
2022/09/30 07:23:20;;;;;;;8.93;7.45;;;;;;;;;;5097004;28;20147;-70
2022/09/30 07:25:57;;;;;;;9.60;6.95;;;;;;;;;;5105147;28;20036;-68
2022/09/30 07:28:28;;;;;;;9.93;7.68;;;;;;;;;;5105398;28;20063;-69
2022/09/30 07:30:56;;;;;;;9.80;6.72;;;;;;;;;;5086277;28;20507;-69
2022/09/30 07:33:44;;;;;;;11.43;8.07;;;;;;;;;;5088027;28;20067;-68
2022/09/30 07:36:12;;;;;;;6.90;6.20;;;;;;;;;;5086917;28;20085;-69
2022/09/30 07:38:41;;;;;;;8.88;7.90;;;;;;;;;;5103402;28;20126;-69
2022/09/30 07:41:11;;;;;;;9.27;7.63;;;;;;;;;;5105647;28;20532;-69
2022/09/30 07:43:39;;;;;;;6.85;5.82;;;;;;;;;;5104775;28;20048;-68
2022/09/30 07:46:08;;;;;;;5.85;4.93;;;;;;;;;;5105047;28;20051;-68
2022/09/30 07:48:43;;;;;;;7.22;6.40;;;;;;;;;;5087961;28;20044;-69
2022/09/30 07:51:12;;;;;;;6.05;5.55;;;;;;;;;;5107892;28;20513;-70
2022/09/30 07:53:40;;;;;;;6.90;6.20;;;;;;;;;;5100625;28;20382;-67
2022/09/30 07:56:08;;;;;;;6.32;5.80;;;;;;;;;;5076739;28;20094;-70
2022/09/30 07:58:35;;;;;;;6.30;5.72;;;;;;;;;;5109898;28;20059;-68
2022/09/30 08:01:05;;;;;;;7.00;6.13;;;;;;;;;;5108522;28;20044;-69
2022/09/30 08:03:33;;;;;;;5.80;4.93;;;;;;;;;;5105969;28;20046;-69
2022/09/30 08:06:08;;;;;;;7.30;6.28;;;;;;;;;;5107022;28;20376;-68
2022/09/30 08:08:36;;;;;;;7.22;6.18;;;;;;;;;;5151359;22;20537;-72
2022/09/30 08:11:04;;;;;;;5.60;5.10;;;;;;;;;;5050712;28;20497;-75
2022/09/30 08:13:32;;;;;;;8.07;5.32;;;;;;;;;;5071132;28;20052;-78
2022/09/30 08:15:59;;;;;;;6.28;5.78;;;;;;;;;;5071044;28;20401;-75
2022/09/30 08:18:27;;;;;;;5.60;5.10;;;;;;;;;;5071614;28;20090;-76
2022/09/30 08:20:56;;;;;;;5.93;5.32;;;;;;;;;;5050682;28;20527;-76
2022/09/30 08:23:23;;;;;;;6.38;4.93;;;;;;;;;;5050566;28;20041;-75
2022/09/30 08:25:51;;;;;;;5.50;5.07;;;;;;;;;;5050411;28;20693;-75
2022/09/30 08:28:18;;;;;;;6.22;5.32;;;;;;;;;;5029336;28;20045;-77
2022/09/30 08:30:46;;;;;;;5.63;4.85;;;;;;;;;;5048043;28;20044;-75
2022/09/30 08:33:13;;;;;;;5.50;5.10;;;;;;;;;;5049791;28;20070;-75
2022/09/30 08:35:41;;;;;;;4.88;4.38;;;;;;;;;;5033255;28;20037;-76
2022/09/30 08:38:08;;;;;;;4.57;4.28;;;;;;;;;;5049863;28;20041;-75
2022/09/30 08:40:43;;;;;;;5.70;5.20;;;;;;;;;;5031492;28;20463;-75
2022/09/30 08:43:19;;;;;;;4.20;3.92;;;;;;;;;;5049987;28;20040;-75
2022/09/30 08:45:58;;;;;;;7.43;4.32;;;;;;;;;;5032534;28;20072;-75
2022/09/30 08:48:39;;;;;;;4.97;4.28;;;;;;;;;;5050506;28;20103;-75
2022/09/30 08:51:15;;;;;;;4.40;3.78;;;;;;;;;;5050535;28;20103;-75
2022/09/30 08:53:44;;;;;;;3.97;3.67;;;;;;;;;;5050898;28;20052;-75
2022/09/30 08:56:17;;;;;;;5.22;4.00;;;;;;;;;;5050138;28;20069;-75
2022/09/30 08:58:44;;;;;;;3.92;3.72;;;;;;;;;;5032924;28;20098;-75
2022/09/30 09:01:18;;;;;;;3.67;3.35;;;;;;;;;;5032242;28;20139;-76
2022/09/30 09:03:46;;;;;;;4.63;3.40;;;;;;;;;;5032256;28;20084;-73
2022/09/30 09:06:26;;;;;;;3.20;3.00;;;;;;;;;;5031858;28;20076;-76
2022/09/30 09:09:12;;;;;;;4.13;3.25;;;;;;;;;;5048623;28;20110;-75
2022/09/30 09:11:59;;;;;;;3.10;2.85;;;;;;;;;;5050064;28;20099;-76
2022/09/30 09:14:39;;;;;;;2.95;2.75;;;;;;;;;;5015493;28;20098;-75
2022/09/30 09:17:09;;;;;;;4.88;3.00;;;;;;;;;;5050009;28;20135;-75
2022/09/30 09:19:46;;;;;;;2.75;2.35;;;;;;;;;;5050323;28;20053;-76
2022/09/30 09:22:14;;;;;;;2.42;2.20;;;;;;;;;;5050013;28;20033;-75
2022/09/30 09:24:44;;;;;;;4.22;4.00;;;;;;;;;;5048939;28;20045;-76
2022/09/30 09:27:25;;;;;;;3.15;2.55;;;;;;;;;;5050336;28;20045;-75
2022/09/30 09:30:06;;;;;;;2.33;2.05;;;;;;;;;;5027738;28;20045;-76
2022/09/30 09:32:36;;;;;;;2.58;2.03;;;;;;;;;;5032157;28;20072;-76
2022/09/30 09:35:13;;;;;;;3.42;2.35;;;;;;;;;;5046947;28;20044;-76
2022/09/30 09:40:39;;;;;;;2.38;2.10;;;;;;;;;;5047905;28;20094;-74
2022/09/30 09:43:12;;;;;;;6.32;2.30;;;;;;;;;;5047946;28;20045;-76
2022/09/30 09:45:44;;;;;;;2.25;2.08;;;;;;;;;;5028442;28;20587;-73
2022/09/30 09:48:16;;;;;;;2.80;2.20;;;;;;;;;;5047103;28;20049;-77
2022/09/30 09:50:43;;;;;;;;;;;;;;;;;;5043651;28;20558;-76
2022/09/30 09:53:18;;;;;;;2.42;2.33;;;;;;;;;;5048934;28;19925;-77
2022/09/30 09:55:45;;;;;;;3.10;2.42;;;;;;;;;;5028125;28;20590;-75
2022/09/30 09:58:15;;;;;;;2.65;2.45;;;;;;;;;;5049044;28;20544;-75
2022/09/30 10:03:23;;;;;;;2.67;2.55;;;;;;;;;;5046602;28;20053;-75
2022/09/30 10:06:03;;;;;;;3.58;2.67;;;;;;;;;;5027998;28;20110;-76
2022/09/30 10:08:34;;;;;;;3.60;2.67;;;;;;;;;;5046529;28;20095;-75
2022/09/30 10:11:03;;;;;;;2.40;2.30;;;;;;;;;;5039004;28;20072;-76
2022/09/30 10:13:32;;;;;;;3.22;3.03;;;;;;;;;;5027755;28;20059;-76
2022/09/30 10:16:01;;;;;;;3.83;3.60;;;;;;;;;;5010777;28;20052;-76
2022/09/30 10:18:31;;;;;;;4.70;3.92;;;;;;;;;;5011795;28;20103;-76
2022/09/30 10:21:00;;;;;;;3.97;3.72;;;;;;;;;;5028417;28;20048;-76
2022/09/30 10:23:38;;;;;;;4.28;3.90;;;;;;;;;;5046569;28;20125;-75
2022/09/30 10:26:08;;;;;;;4.07;3.78;;;;;;;;;;5046127;28;20061;-76
2022/09/30 10:28:44;;;;;;;5.28;4.75;;;;;;;;;;5045879;28;20050;-76
2022/09/30 10:31:16;;;;;;;4.47;4.15;;;;;;;;;;5011827;28;20225;-77
2022/09/30 10:33:43;;;;;;;;;;;;;;;;;;5046557;28;20040;-76
2022/09/30 10:36:13;;;;;;;3.28;3.08;;;;;;;;;;5045295;28;20190;-76
2022/09/30 10:38:46;;;;;;;4.97;4.60;;;;;;;;;;5045900;28;20510;-75
2022/09/30 10:41:20;;;;;;;3.88;3.60;;;;;;;;;;5046636;28;20546;-75
2022/09/30 10:43:49;;;;;;;4.85;4.45;;;;;;;;;;5046136;28;20118;-76
2022/09/30 10:46:25;;;;;;;5.18;4.38;;;;;;;;;;5045737;28;20040;-76
2022/09/30 10:48:57;;;;;;;7.22;6.25;;;;;;;;;;5026960;28;20048;-85
2022/09/30 10:51:33;;;;;;;5.63;5.13;;;;;;;;;;5045792;28;20501;-76
2022/09/30 10:54:01;;;;;;;5.65;3.78;;;;;;;;;;5027678;28;20094;-76
2022/09/30 10:56:36;;;;;;;4.07;3.78;;;;;;;;;;5045571;28;20493;-76
2022/09/30 10:59:04;;;;;;;3.72;3.42;;;;;;;;;;5045208;28;20051;-75
2022/09/30 11:01:44;;;;;;;3.83;3.63;;;;;;;;;;5027620;28;20045;-76
2022/09/30 11:04:21;;;;;;;4.57;3.38;;;;;;;;;;5027936;28;20536;-76
2022/09/30 11:06:49;;;;;;;5.15;3.97;;;;;;;;;;5011009;28;20049;-77
2022/09/30 11:09:31;;;;;;;3.30;3.00;;;;;;;;;;5045351;28;20059;-76
2022/09/30 11:12:09;;;;;;;11.18;3.72;;;;;;;;;;5027761;28;20134;-75
2022/09/30 11:14:42;;;;;;;3.95;3.72;;;;;;;;;;5045247;28;20143;-76
2022/09/30 11:17:09;;;;;;;3.40;3.20;;;;;;;;;;5027742;28;20099;-76
2022/09/30 11:20:12;;;;;;;3.95;3.65;;;;;;;;;;5045339;28;20048;-76
2022/09/30 11:22:54;;;;;;;5.93;3.97;;;;;;;;;;4967149;28;20145;-76
2022/09/30 11:25:25;;;;;;;4.60;2.97;;;;;;;;;;5039813;28;20122;-75
2022/09/30 11:28:02;;;;;;;5.13;2.92;;;;;;;;;;5049797;28;20422;-76
2022/09/30 11:30:39;;;;;;;3.58;3.28;;;;;;;;;;5049233;28;20417;-80
2022/09/30 11:33:27;;;;;;;7.72;3.90;;;;;;;;;;5049688;28;20434;-76
2022/09/30 11:36:11;;;;;;;6.72;5.65;;;;;;;;;;5031142;28;20132;-76
2022/09/30 11:38:57;;;;;;;6.00;4.65;;;;;;;;;;5015156;28;20179;-76
2022/09/30 11:41:28;;;;;;;9.05;6.70;;;;;;;;;;5049282;28;20110;-76
2022/09/30 11:44:14;;;;;;;7.40;5.40;;;;;;;;;;5048542;28;20364;-75
2022/09/30 11:46:53;;;;;;;12.05;6.22;;;;;;;;;;5030370;28;20056;-76
2022/09/30 11:49:40;;;;;;;8.30;2.60;;;;;;;;;;5048527;28;20037;-75
2022/09/30 11:52:36;;;;;;;3.20;3.00;;;;;;;;;;5028228;28;20068;-76
2022/09/30 11:55:18;;;;;;;4.15;3.70;;;;;;;;;;5000704;28;20520;-76
2022/09/30 11:57:45;;;;;;;2.53;2.33;;;;;;;;;;5047490;28;20490;-77
2022/09/30 12:00:17;;;;;;;6.22;2.80;;;;;;;;;;5048269;28;20041;-76
2022/09/30 12:02:52;;;;;;;21.48;11.90;;;;;;;;;;5048089;28;20072;-76
2022/09/30 12:05:40;;;;;;;17.00;9.25;;;;;;;;;;5013542;28;20315;-76
2022/09/30 12:08:14;;;;;;;13.60;7.93;;;;;;;;;;5046743;28;20044;-76
2022/09/30 12:10:53;;;;;;;7.97;4.88;;;;;;;;;;5048138;28;20457;-76
2022/09/30 12:13:24;;;;;;;2.80;2.60;;;;;;;;;;5048384;28;20049;-76
2022/09/30 12:15:54;;;;;;;21.70;10.60;;;;;;;;;;5048336;28;20068;-76
2022/09/30 12:18:26;;;;;;;9.70;5.40;;;;;;;;;;5047714;28;20052;-75
2022/09/30 12:21:09;;;;;;;3.50;3.05;;;;;;;;;;5048170;28;20037;-76
2022/09/30 12:23:48;;;;;;;2.25;2.13;;;;;;;;;;5047660;28;20041;-76
2022/09/30 12:26:16;;;;;;;2.83;2.40;;;;;;;;;;5045897;28;20061;-75
2022/09/30 12:31:50;;;;;;;4.25;3.35;;;;;;;;;;5046512;28;20533;-75
2022/09/30 12:34:25;;;;;;;2.83;2.42;;;;;;;;;;5043399;28;20141;-75
2022/09/30 12:37:02;;;;;;;10.80;5.55;;;;;;;;;;5044198;28;20040;-77
2022/09/30 12:39:37;;;;;;;13.30;5.65;;;;;;;;;;5026644;28;20080;-77
2022/09/30 12:42:11;;;;;;;10.27;4.85;;;;;;;;;;5027258;28;20103;-77
2022/09/30 12:44:57;;;;;;;6.85;3.60;;;;;;;;;;5029033;28;20514;-76
2022/09/30 12:47:33;;;;;;;20.40;8.63;;;;;;;;;;5039726;28;20071;-76
2022/09/30 12:50:02;;;;;;;22.88;9.18;;;;;;;;;;5029988;28;20116;-76
2022/09/30 12:52:32;;;;;;;24.20;10.25;;;;;;;;;;5047111;28;20060;-78
2022/09/30 12:55:02;;;;;;;15.95;7.35;;;;;;;;;;5030817;28;20510;-76
2022/09/30 12:57:31;;;;;;;3.33;3.03;;;;;;;;;;5048302;28;20077;-76
2022/09/30 13:00:04;;;;;;;4.25;3.20;;;;;;;;;;5047793;28;20143;-76
2022/09/30 13:02:36;;;;;;;4.63;3.28;;;;;;;;;;5047712;28;20441;-74
2022/09/30 13:05:23;;;;;;;12.60;6.25;;;;;;;;;;5043641;28;20106;-74
2022/09/30 13:08:05;;;;;;;17.25;8.38;;;;;;;;;;5046693;28;20513;-77
2022/09/30 13:10:34;;;;;;;14.38;7.10;;;;;;;;;;5029784;28;20049;-75
2022/09/30 13:13:10;;;;;;;5.53;4.20;;;;;;;;;;5046110;28;20045;-77
2022/09/30 13:15:39;;;;;;;3.15;2.83;;;;;;;;;;5046919;28;20080;-75
2022/09/30 13:18:24;;;;;;;3.90;2.58;;;;;;;;;;5030781;28;20059;-76
2022/09/30 13:20:53;;;;;;;2.72;2.53;;;;;;;;;;5029696;28;20103;-74
2022/09/30 13:23:37;;;;;;;3.00;2.80;;;;;;;;;;5046728;28;20508;-74
2022/09/30 13:26:25;;;;;;;3.95;2.95;;;;;;;;;;5029884;28;20095;-76
2022/09/30 13:29:01;;;;;;;9.82;8.00;;;;;;;;;;5018492;28;20550;-76
2022/09/30 13:31:49;;;;;;;3.70;3.40;;;;;;;;;;5041615;28;20570;-76
2022/09/30 13:34:23;;;;;;;3.40;3.10;;;;;;;;;;5039181;28;20060;-76
2022/09/30 13:36:50;;;;;;;3.33;3.13;;;;;;;;;;5038709;28;20052;-76
2022/09/30 13:39:21;;;;;;;3.30;3.10;;;;;;;;;;5046184;28;20044;-75
2022/09/30 13:42:07;;;;;;;4.85;3.10;;;;;;;;;;5048509;28;20049;-75
2022/09/30 13:44:53;;;;;;;3.90;3.03;;;;;;;;;;5046799;28;20049;-77
2022/09/30 13:47:42;;;;;;;3.00;2.78;;;;;;;;;;5026451;28;20068;-74
2022/09/30 13:50:38;;;;;;;6.90;4.40;;;;;;;;;;5027839;28;20106;-75
2022/09/30 13:53:07;;;;;;;5.18;3.70;;;;;;;;;;5037040;28;20130;-76
2022/09/30 13:55:48;;;;;;;5.53;3.47;;;;;;;;;;5045826;28;20703;-76
2022/09/30 13:58:23;;;;;;;5.57;5.13;;;;;;;;;;5045255;28;20118;-75
2022/09/30 14:01:03;;;;;;;6.70;5.90;;;;;;;;;;5046864;28;20110;-76
2022/09/30 14:03:37;;;;;;;11.10;9.93;;;;;;;;;;5044990;28;20577;-76
2022/09/30 14:06:21;;;;;;;7.70;7.00;;;;;;;;;;5034381;28;20121;-76
2022/09/30 14:08:58;;;;;;;5.80;4.97;;;;;;;;;;5026874;28;20049;-76
2022/09/30 14:11:31;;;;;;;3.80;3.40;;;;;;;;;;5026322;28;20045;-75
2022/09/30 14:14:07;;;;;;;4.30;3.30;;;;;;;;;;5026056;28;20072;-78
2022/09/30 14:16:48;;;;;;;8.57;3.45;;;;;;;;;;5026496;28;20041;-77
2022/09/30 14:19:31;;;;;;;4.30;3.90;;;;;;;;;;5024887;28;20127;-76
2022/09/30 14:22:04;;;;;;;3.50;3.30;;;;;;;;;;5028439;28;20076;-76
2022/09/30 14:24:35;;;;;;;3.63;3.33;;;;;;;;;;5025683;28;20069;-76
2022/09/30 14:27:19;;;;;;;4.78;3.60;;;;;;;;;;5044553;28;20498;-75
2022/09/30 14:29:53;;;;;;;4.65;4.35;;;;;;;;;;5033493;28;20132;-76
2022/09/30 14:32:25;;;;;;;6.15;5.35;;;;;;;;;;5044254;28;20033;-76
2022/09/30 14:34:53;;;;;;;6.32;5.32;;;;;;;;;;5068873;22;20342;-77
2022/09/30 14:37:30;;;;;;;4.85;4.32;;;;;;;;;;5090285;28;20047;-80
2022/09/30 14:39:58;;;;;;;4.82;3.92;;;;;;;;;;5092888;28;20491;-78
2022/09/30 14:42:37;;;;;;;4.80;4.40;;;;;;;;;;5106074;28;20557;-78
2022/09/30 14:45:06;;;;;;;3.70;3.40;;;;;;;;;;5067356;28;20044;-78
2022/09/30 14:47:37;;;;;;;4.15;3.75;;;;;;;;;;5050631;28;20503;-78
2022/09/30 14:50:15;;;;;;;5.88;3.72;;;;;;;;;;5078340;28;20052;-78
2022/09/30 14:52:44;;;;;;;5.30;4.80;;;;;;;;;;5079054;28;20032;-79
2022/09/30 14:55:25;;;;;;;3.22;3.03;;;;;;;;;;5074631;28;20083;-79
2022/09/30 14:57:53;;;;;;;3.67;3.42;;;;;;;;;;5081955;28;20134;-81
2022/09/30 15:00:22;;;;;;;3.80;3.50;;;;;;;;;;5088056;28;20048;-79
2022/09/30 15:02:50;;;;;;;12.10;10.90;;;;;;;;;;5088876;28;20040;-78
2022/09/30 15:05:18;;;;;;;4.50;3.92;;;;;;;;;;5086062;28;20086;-79
2022/09/30 15:07:45;;;;;;;5.80;4.50;;;;;;;;;;5068835;28;20051;-79
2022/09/30 15:10:23;;;;;;;4.90;4.50;;;;;;;;;;5088746;28;20120;-79
2022/09/30 15:12:51;;;;;;;4.28;3.90;;;;;;;;;;5092829;28;20060;-79
2022/09/30 15:15:33;;;;;;;5.00;4.28;;;;;;;;;;5088807;28;20151;-79
2022/09/30 15:18:21;;;;;;;4.30;3.90;;;;;;;;;;5085726;28;20048;-79
2022/09/30 15:20:48;;;;;;;4.03;3.72;;;;;;;;;;5085857;28;20070;-79